Time;durP1;ratioP1;P1;durP2;ratioP2;P2;SDS_P1;SDS_P2;PMS_P1;PMS_P2;Temp;Humidity;BMP_temperature;BMP_pressure;BME280_temperature;BME280_humidity;BME280_pressure;Samples;Min_cycle;Max_cycle;Signal;HPM_P1;HPM_P2
2022/05/13 00:01:56;;;;;;;11.63;7.30;;;;;;;18.13;62.04;99748.88;5051769;28;20199;-56
2022/05/13 00:04:23;;;;;;;7.40;6.67;;;;;;;18.15;61.76;99742.81;5051958;28;20212;-56
2022/05/13 00:06:50;;;;;;;7.77;6.77;;;;;;;18.14;61.26;99746.28;5051722;28;20540;-56
2022/05/13 00:09:17;;;;;;;7.60;6.90;;;;;;;18.09;61.27;99744.59;5051972;28;20200;-57
2022/05/13 00:11:44;;;;;;;6.60;6.00;;;;;;;18.12;60.72;99741.97;5067788;28;20212;-57
2022/05/13 00:14:12;;;;;;;7.73;6.93;;;;;;;18.02;60.53;99741.19;5071625;28;20685;-57
2022/05/13 00:16:39;;;;;;;8.07;7.13;;;;;;;18.11;60.72;99741.09;5071614;28;20669;-57
2022/05/13 00:19:11;;;;;;;7.33;6.53;;;;;;;18.13;60.44;99738.47;5071373;28;20192;-57
2022/05/13 00:21:38;;;;;;;9.10;6.87;;;;;;;18.05;60.02;99738.56;5054968;28;20200;-57
2022/05/13 00:24:06;;;;;;;7.43;6.73;;;;;;;18.11;59.78;99742.84;5071286;28;20728;-57
2022/05/13 00:26:32;;;;;;;6.83;6.20;;;;;;;18.11;59.69;99729.84;5071605;28;20196;-57
2022/05/13 00:28:59;;;;;;;11.30;7.20;;;;;;;18.12;59.74;99735.03;5071256;28;20192;-57
2022/05/13 00:31:28;;;;;;;8.13;7.23;;;;;;;18.18;59.52;99732.34;5071170;28;20674;-57
2022/05/13 00:33:55;;;;;;;7.90;7.10;;;;;;;18.16;59.37;99736.72;5071202;28;20707;-57
2022/05/13 00:36:22;;;;;;;9.93;7.10;;;;;;;18.14;59.37;99735.88;5071462;28;20581;-57
2022/05/13 00:38:49;;;;;;;8.27;7.53;;;;;;;18.12;59.70;99736.78;5071059;28;20579;-57
2022/05/13 00:41:16;;;;;;;9.23;7.63;;;;;;;18.11;60.12;99741.09;5070887;28;20191;-57
2022/05/13 00:43:51;;;;;;;9.60;7.93;;;;;;;17.96;60.39;99714.41;5070245;28;20533;-57
2022/05/13 00:46:18;;;;;;;9.50;7.53;;;;;;;18.13;59.91;99741.94;5070933;28;20195;-57
2022/05/13 00:48:47;;;;;;;7.83;7.03;;;;;;;18.10;59.54;99736.78;5070794;28;20203;-57
2022/05/13 00:51:19;;;;;;;11.43;7.87;;;;;;;18.07;59.38;99739.44;5070947;28;20587;-57
2022/05/13 00:53:47;;;;;;;8.17;7.10;;;;;;;18.00;59.64;99742.94;5070727;28;20191;-57
2022/05/13 00:56:13;;;;;;;8.90;7.23;;;;;;;17.97;59.87;99740.38;5070870;28;20602;-57
2022/05/13 00:58:44;;;;;;;9.60;7.73;;;;;;;17.93;60.03;99738.69;5070707;28;20574;-57
2022/05/13 01:01:11;;;;;;;8.70;7.03;;;;;;;17.84;59.91;99738.78;5070727;28;20243;-57
2022/05/13 01:03:38;;;;;;;10.67;7.60;;;;;;;17.86;60.12;99744.81;5070680;28;20222;-57
2022/05/13 01:06:10;;;;;;;10.15;7.65;;;;;;;17.87;60.45;99740.47;5070238;28;20438;-57
2022/05/13 01:08:37;;;;;;;10.23;7.33;;;;;;;17.85;60.57;99742.25;5070410;28;20303;-56
2022/05/13 01:11:10;;;;;;;10.93;7.67;;;;;;;17.60;61.29;99746.78;5070425;28;20206;-57
2022/05/13 01:13:38;;;;;;;11.37;8.07;;;;;;;17.57;61.25;99747.69;5070660;28;20206;-57
2022/05/13 01:16:05;;;;;;;10.10;7.97;;;;;;;17.60;61.06;99749.38;5070526;28;20286;-57
2022/05/13 01:18:33;;;;;;;14.57;8.57;;;;;;;17.58;61.18;99748.50;5070425;28;20218;-56
2022/05/13 01:21:01;;;;;;;12.87;8.30;;;;;;;17.55;61.51;99749.41;5070344;28;20200;-57
2022/05/13 01:23:31;;;;;;;9.83;8.10;;;;;;;17.52;61.71;99732.97;5070383;28;20636;-56
2022/05/13 01:26:02;;;;;;;10.43;8.20;;;;;;;17.47;61.04;99737.34;5070427;28;20195;-56
2022/05/13 01:28:32;;;;;;;12.77;8.10;;;;;;;17.38;61.49;99738.25;5070191;28;20203;-56
2022/05/13 01:31:02;;;;;;;8.87;6.97;;;;;;;17.31;61.83;99733.09;5070227;28;20202;-56
2022/05/13 01:33:30;;;;;;;11.53;8.33;;;;;;;17.33;61.86;99736.56;5060171;28;20196;-57
2022/05/13 01:35:59;;;;;;;8.63;7.30;;;;;;;17.29;61.78;99735.72;5050172;28;20634;-56
2022/05/13 01:38:28;;;;;;;8.17;7.37;;;;;;;17.29;61.77;99730.53;5049902;28;20224;-57
2022/05/13 01:40:57;;;;;;;7.63;6.70;;;;;;;17.24;62.21;99740.09;5050305;28;20245;-56
2022/05/13 01:43:25;;;;;;;7.83;7.03;;;;;;;17.15;62.60;99734.94;5049939;28;20235;-57
2022/05/13 01:45:52;;;;;;;8.00;7.20;;;;;;;17.11;62.49;99734.09;5050012;28;20199;-56
2022/05/13 01:48:19;;;;;;;7.70;7.00;;;;;;;17.14;62.53;99737.56;5050140;28;20203;-57
2022/05/13 01:50:46;;;;;;;8.60;7.37;;;;;;;17.05;62.32;99736.75;5049892;28;20548;-56
2022/05/13 01:53:13;;;;;;;12.30;7.33;;;;;;;17.06;62.54;99732.41;5050066;28;20203;-56
2022/05/13 01:55:42;;;;;;;9.40;7.50;;;;;;;17.05;62.70;99735.91;5050161;28;20195;-57
2022/05/13 01:58:12;;;;;;;7.57;6.77;;;;;;;17.04;62.62;99724.63;5049883;28;20275;-56
2022/05/13 02:00:39;;;;;;;7.83;7.10;;;;;;;17.01;62.62;99728.97;5049703;28;20192;-57
2022/05/13 02:05:55;;;;;;;9.87;7.30;;;;;;;16.97;62.87;99728.16;5039342;28;20203;-56
2022/05/13 02:08:22;;;;;;;7.53;6.83;;;;;;;16.94;62.93;99722.97;5050045;28;20191;-57
2022/05/13 02:10:49;;;;;;;7.67;7.00;;;;;;;16.97;62.81;99729.88;5049725;28;20199;-56
2022/05/13 02:13:18;;;;;;;9.83;6.97;;;;;;;16.79;62.76;99704.88;5049802;28;20192;-56
2022/05/13 02:15:45;;;;;;;9.13;6.53;;;;;;;16.97;62.56;99735.94;5049607;28;20188;-56
2022/05/13 02:18:12;;;;;;;9.10;7.53;;;;;;;16.91;61.99;99738.56;5049517;28;20199;-56
2022/05/13 02:20:41;;;;;;;7.53;6.70;;;;;;;16.88;61.68;99738.59;5049925;28;20196;-57
2022/05/13 02:23:08;;;;;;;7.63;6.80;;;;;;;16.85;61.79;99742.91;5049681;28;20274;-56
2022/05/13 02:25:35;;;;;;;7.23;6.43;;;;;;;16.83;62.30;99736.88;5049751;28;20579;-56
2022/05/13 02:28:03;;;;;;;8.97;6.70;;;;;;;16.89;61.89;99736.84;5049463;28;20189;-56
2022/05/13 02:30:32;;;;;;;7.45;6.82;;;;;;;16.90;61.97;99735.97;5049298;28;20450;-56
2022/05/13 02:32:59;;;;;;;8.80;6.80;;;;;;;16.92;61.75;99729.06;5049911;28;20192;-57
2022/05/13 02:35:27;;;;;;;7.50;6.80;;;;;;;16.91;62.04;99737.69;5049559;28;20268;-56
2022/05/13 02:37:54;;;;;;;8.10;7.03;;;;;;;16.87;62.02;99733.38;5049186;28;20192;-56
2022/05/13 02:41:11;;;;;;;7.70;6.80;;;;;;;16.77;62.61;99739.50;5049774;28;20203;-56
2022/05/13 02:43:09;;;;;;;11.83;7.10;;;;;;;16.78;62.85;99738.63;5049407;28;20275;-56
2022/05/13 02:45:38;;;;;;;14.27;7.80;;;;;;;16.77;62.75;99732.59;5049298;28;20712;-56
2022/05/13 02:48:05;;;;;;;10.43;7.63;;;;;;;16.78;62.54;99731.72;5049593;28;20197;-57
2022/05/13 02:50:31;;;;;;;9.50;6.90;;;;;;;16.72;62.64;99731.75;5049652;28;20196;-56
2022/05/13 02:52:59;;;;;;;9.53;6.90;;;;;;;16.71;62.77;99735.19;5049460;28;20215;-56
2022/05/13 02:55:26;;;;;;;7.83;7.10;;;;;;;16.72;62.56;99736.94;5049507;28;20191;-56
2022/05/13 02:57:53;;;;;;;8.50;7.20;;;;;;;16.72;62.76;99736.94;5049227;28;20199;-57
2022/05/13 03:00:20;;;;;;;9.00;7.77;;;;;;;16.70;63.01;99730.03;5049532;28;20560;-56
2022/05/13 03:02:48;;;;;;;9.47;7.43;;;;;;;16.74;63.28;99735.19;5049452;28;20271;-56
2022/05/13 03:05:15;;;;;;;8.03;7.20;;;;;;;16.74;63.25;99742.97;5049162;28;20289;-57
2022/05/13 03:07:41;;;;;;;12.23;7.07;;;;;;;16.76;63.34;99745.53;5054337;28;20202;-56
2022/05/13 03:10:09;;;;;;;7.70;6.80;;;;;;;16.71;63.22;99749.91;5068906;28;20204;-56
2022/05/13 03:12:36;;;;;;;8.17;7.37;;;;;;;16.68;63.29;99750.78;5072201;28;20204;-56
2022/05/13 03:15:04;;;;;;;8.00;7.20;;;;;;;16.71;63.47;99753.34;5072501;28;20187;-56
2022/05/13 03:17:30;;;;;;;9.43;7.63;;;;;;;16.64;63.64;99754.28;5072700;28;20898;-57
2022/05/13 03:19:58;;;;;;;8.57;7.70;;;;;;;16.65;63.96;99755.09;5072511;28;20708;-56
2022/05/13 03:22:26;;;;;;;8.90;7.23;;;;;;;16.65;64.23;99753.38;5072735;28;20199;-57
2022/05/13 03:24:53;;;;;;;9.23;7.50;;;;;;;16.70;64.00;99759.41;5072676;28;20215;-57
2022/05/13 03:27:19;;;;;;;8.50;7.70;;;;;;;16.70;64.28;99759.41;5073074;28;20187;-56
2022/05/13 03:29:46;;;;;;;10.80;7.37;;;;;;;16.75;64.15;99759.41;5072909;28;20226;-57
2022/05/13 03:32:13;;;;;;;13.00;7.83;;;;;;;16.73;64.18;99766.34;5072728;28;20245;-57
2022/05/13 03:34:40;;;;;;;9.97;7.97;;;;;;;16.74;64.12;99758.53;5072579;28;20184;-57
2022/05/13 03:37:08;;;;;;;11.20;7.90;;;;;;;16.78;64.52;99762.88;5066956;28;21013;-57
2022/05/13 03:39:35;;;;;;;14.67;9.57;;;;;;;16.86;63.89;99766.28;5072054;28;20239;-57
2022/05/13 03:42:01;;;;;;;22.37;13.83;;;;;;;16.94;63.84;99767.09;5072617;28;20191;-57
2022/05/13 03:44:28;;;;;;;22.63;12.80;;;;;;;16.97;63.99;99769.69;5072204;28;20226;-56
2022/05/13 03:46:55;;;;;;;14.20;10.13;;;;;;;17.01;63.96;99773.09;5072159;28;20207;-56
2022/05/13 03:49:22;;;;;;;15.23;9.37;;;;;;;17.03;63.71;99777.41;5072377;28;21047;-57
2022/05/13 03:51:49;;;;;;;9.60;8.53;;;;;;;17.09;63.57;99773.94;5072443;28;20195;-57
2022/05/13 03:54:17;;;;;;;10.50;9.10;;;;;;;17.13;63.13;99767.00;5072178;28;20971;-56
2022/05/13 03:56:44;;;;;;;11.50;9.10;;;;;;;17.19;62.96;99774.75;5072353;28;20215;-61
2022/05/13 03:59:11;;;;;;;12.77;7.67;;;;;;;17.25;62.85;99778.16;5072447;28;20197;-62
2022/05/13 04:01:37;;;;;;;12.23;8.27;;;;;;;17.30;62.42;99789.41;5072369;28;20195;-62
2022/05/13 04:04:05;;;;;;;15.33;7.47;;;;;;;17.35;62.32;99789.38;5072067;28;20231;-61
2022/05/13 04:09:22;;;;;;;8.90;7.80;;;;;;;17.47;61.90;99787.53;5014544;28;20339;-62
2022/05/13 04:17:13;;;;;;;11.77;8.30;;;;;;;17.76;61.56;99796.91;5050755;28;20183;-63
2022/05/13 04:19:39;;;;;;;9.40;8.17;;;;;;;17.85;60.61;99797.69;5070839;28;20266;-61
2022/05/13 04:22:06;;;;;;;10.67;9.43;;;;;;;17.90;60.61;99801.13;5071505;28;20195;-61
2022/05/13 04:24:34;;;;;;;14.93;9.03;;;;;;;18.00;60.69;99804.47;5071271;28;20725;-62
2022/05/13 04:27:01;;;;;;;9.23;7.90;;;;;;;18.02;60.74;99805.34;5071326;28;20202;-61
2022/05/13 04:29:28;;;;;;;8.00;7.20;;;;;;;17.96;60.25;99802.81;5071224;28;20195;-61
2022/05/13 04:31:55;;;;;;;10.63;8.40;;;;;;;18.04;60.17;99811.41;5071112;28;20199;-62
2022/05/13 04:34:21;;;;;;;11.00;8.80;;;;;;;18.08;60.12;99808.75;5071050;28;20195;-62
2022/05/13 04:36:49;;;;;;;10.33;8.40;;;;;;;18.13;60.11;99812.16;5071105;28;20666;-62
2022/05/13 04:39:16;;;;;;;9.83;8.67;;;;;;;18.21;60.00;99815.56;5070968;28;20776;-62
2022/05/13 04:44:29;;;;;;;11.70;9.67;;;;;;;18.44;59.87;99811.88;5071114;28;20341;-63
2022/05/13 04:46:56;;;;;;;12.13;10.13;;;;;;;18.50;59.44;99817.03;5071083;28;20605;-63
2022/05/13 04:49:22;;;;;;;19.27;10.87;;;;;;;18.56;59.55;99824.78;5071109;28;20192;-63
2022/05/13 04:51:49;;;;;;;12.97;8.97;;;;;;;18.64;59.07;99812.56;5071219;28;20199;-62
2022/05/13 04:54:16;;;;;;;10.67;9.60;;;;;;;18.70;59.01;99821.16;5071024;28;20237;-63
2022/05/13 04:56:44;;;;;;;12.83;8.43;;;;;;;18.75;58.63;99814.16;5070873;28;20195;-63
2022/05/13 04:59:11;;;;;;;14.93;9.43;;;;;;;18.88;57.82;99820.06;5070824;28;20191;-62
2022/05/13 05:01:38;;;;;;;15.47;9.40;;;;;;;18.97;57.50;99819.97;5070966;28;20196;-62
2022/05/13 05:04:05;;;;;;;11.10;9.33;;;;;;;18.97;57.63;99819.09;5069302;28;20203;-62
2022/05/13 05:06:32;;;;;;;13.30;9.10;;;;;;;19.05;57.76;99810.31;5064767;28;20665;-62
2022/05/13 05:08:59;;;;;;;11.03;8.47;;;;;;;19.19;57.40;99824.03;5070180;28;20207;-62
2022/05/13 05:11:26;;;;;;;12.13;9.43;;;;;;;19.26;56.98;99822.19;5069511;28;20192;-62
2022/05/13 05:13:54;;;;;;;19.77;9.10;;;;;;;19.24;57.05;99830.03;5050808;28;20192;-63
2022/05/13 05:16:22;;;;;;;12.60;9.17;;;;;;;19.30;56.68;99829.94;5052521;28;20192;-62
2022/05/13 05:18:49;;;;;;;12.33;9.80;;;;;;;19.39;56.61;99824.63;5070481;28;20292;-63
2022/05/13 05:21:16;;;;;;;13.43;10.07;;;;;;;19.53;56.51;99826.19;5069702;28;20430;-62
2022/05/13 05:23:44;;;;;;;13.00;9.03;;;;;;;19.69;55.91;99820.72;5069837;28;20440;-62
2022/05/13 05:26:12;;;;;;;10.67;8.63;;;;;;;19.77;55.67;99807.56;5070406;28;20219;-62
2022/05/13 05:28:39;;;;;;;12.23;8.50;;;;;;;19.95;55.02;99820.28;5070322;28;20195;-63
2022/05/13 05:31:09;;;;;;;8.97;7.93;;;;;;;19.99;54.31;99822.84;5070086;28;20192;-65
2022/05/13 05:33:36;;;;;;;12.67;8.13;;;;;;;20.10;53.97;99830.50;5069180;28;20191;-62
2022/05/13 05:36:04;;;;;;;13.33;7.33;;;;;;;19.99;53.00;99821.97;5068648;28;20206;-63
2022/05/13 05:38:31;;;;;;;9.90;7.10;;;;;;;20.06;53.33;99831.41;5069729;28;20238;-61
2022/05/13 05:40:59;;;;;;;8.67;7.60;;;;;;;20.13;53.27;99833.06;5061746;28;20188;-63
2022/05/13 05:43:27;;;;;;;10.43;7.47;;;;;;;20.19;53.16;99827.69;5062213;28;20548;-63
2022/05/13 05:45:54;;;;;;;10.40;6.83;;;;;;;20.28;53.27;99830.19;5069332;28;20215;-63
2022/05/13 05:48:23;;;;;;;6.80;6.07;;;;;;;20.25;52.35;99832.84;5069135;28;20650;-63
2022/05/13 05:50:51;;;;;;;9.97;7.00;;;;;;;20.23;52.34;99824.16;5069166;28;20916;-63
2022/05/13 05:57:13;;;;;;;10.60;7.23;;;;;;;20.29;52.21;99828.44;5065724;28;20195;-63
2022/05/13 05:58:52;;;;;;;8.13;7.37;;;;;;;20.37;52.32;99827.44;5064018;28;20202;-57
2022/05/13 06:01:19;;;;;;;11.23;7.43;;;;;;;20.39;52.43;99827.38;5057176;28;20289;-56
2022/05/13 06:03:47;;;;;;;10.33;6.77;;;;;;;20.45;52.61;99820.31;5049281;28;20192;-57
2022/05/13 06:06:14;;;;;;;9.50;6.70;;;;;;;20.36;53.01;99830.91;5053422;28;20215;-57
2022/05/13 06:08:42;;;;;;;13.37;7.87;;;;;;;20.16;53.63;99806.03;5060642;28;20206;-57
2022/05/13 06:11:10;;;;;;;11.23;6.97;;;;;;;20.40;53.45;99822.16;5068806;28;20187;-57
2022/05/13 06:13:37;;;;;;;9.20;7.47;;;;;;;20.54;53.83;99821.91;5066364;28;20239;-57
2022/05/13 06:16:04;;;;;;;8.73;7.83;;;;;;;20.67;53.41;99823.38;5049326;28;20196;-57
2022/05/13 06:18:31;;;;;;;13.00;8.03;;;;;;;20.69;53.05;99821.59;5055253;28;20218;-57
2022/05/13 06:21:00;;;;;;;9.73;7.10;;;;;;;20.62;53.13;99824.34;5056139;28;20199;-57
2022/05/13 06:23:26;;;;;;;8.43;7.47;;;;;;;20.55;53.75;99819.25;5049472;28;20282;-57
2022/05/13 06:25:53;;;;;;;9.30;7.43;;;;;;;20.60;53.51;99819.19;5062123;28;20223;-57
2022/05/13 06:28:21;;;;;;;8.60;7.70;;;;;;;20.64;53.95;99823.44;5069337;28;20272;-57
2022/05/13 06:30:47;;;;;;;9.50;6.80;;;;;;;20.71;52.89;99825.03;5069531;28;20215;-57
2022/05/13 06:33:14;;;;;;;8.40;7.27;;;;;;;20.73;53.13;99825.00;5069197;28;20192;-57
2022/05/13 06:35:43;;;;;;;7.13;6.43;;;;;;;20.76;52.82;99822.34;5067116;28;20238;-57
2022/05/13 06:38:20;;;;;;;11.20;7.13;;;;;;;20.79;52.92;99814.44;5048490;28;20224;-57
2022/05/13 06:40:47;;;;;;;9.13;7.23;;;;;;;20.87;52.86;99816.03;5048456;28;20203;-58
2022/05/13 06:43:14;;;;;;;8.67;7.23;;;;;;;20.99;51.56;99814.88;5049265;28;20205;-57
2022/05/13 06:45:41;;;;;;;8.00;7.13;;;;;;;21.14;51.56;99806.78;5050683;28;20553;-57
2022/05/13 06:48:09;;;;;;;6.80;6.17;;;;;;;21.17;50.84;99804.09;5052640;28;20291;-63
2022/05/13 06:50:36;;;;;;;7.20;6.60;;;;;;;21.28;50.00;99806.47;5052676;28;20199;-62
2022/05/13 06:53:04;;;;;;;7.77;6.80;;;;;;;21.35;49.39;99797.59;5052642;28;20189;-62
2022/05/13 06:55:32;;;;;;;8.93;7.53;;;;;;;21.51;49.24;99804.19;5053223;28;20677;-61
2022/05/13 06:57:59;;;;;;;11.27;7.27;;;;;;;21.60;49.99;99799.59;5052651;28;20199;-63
2022/05/13 07:00:26;;;;;;;10.50;7.73;;;;;;;21.72;50.10;99799.34;5062512;28;20200;-63
2022/05/13 07:02:53;;;;;;;8.87;7.93;;;;;;;21.74;49.72;99791.44;5071263;28;20203;-63
2022/05/13 07:05:20;;;;;;;9.13;7.30;;;;;;;21.85;49.80;99801.63;5070069;28;20695;-63
2022/05/13 07:07:47;;;;;;;8.30;7.50;;;;;;;21.94;49.30;99791.84;5072732;28;20199;-62
2022/05/13 07:10:14;;;;;;;8.17;7.37;;;;;;;21.99;49.38;99786.50;5072486;28;20243;-63
2022/05/13 07:12:42;;;;;;;8.07;7.27;;;;;;;22.06;49.86;99785.41;5052350;28;20617;-62
2022/05/13 07:15:12;;;;;;;8.17;7.33;;;;;;;22.21;49.39;99795.50;5052819;28;20199;-62
2022/05/13 07:17:39;;;;;;;8.40;7.32;;;;;;;22.23;48.17;99794.56;5052196;28;20439;-63
2022/05/13 07:20:07;;;;;;;10.13;6.90;;;;;;;22.16;48.85;99789.53;5068717;28;20206;-57
2022/05/13 07:22:34;;;;;;;8.63;6.87;;;;;;;22.23;48.26;99791.09;5072240;28;20192;-57
2022/05/13 07:25:01;;;;;;;9.13;7.60;;;;;;;22.33;48.10;99784.72;5072015;28;20269;-57
2022/05/13 07:27:28;;;;;;;7.83;6.77;;;;;;;22.50;48.00;99782.47;5071798;28;20203;-56
2022/05/13 07:29:56;;;;;;;9.93;8.40;;;;;;;22.71;47.96;99781.94;5072078;28;20213;-57
2022/05/13 07:32:23;;;;;;;8.97;7.97;;;;;;;22.82;47.52;99787.75;5071884;28;20255;-57
2022/05/13 07:34:50;;;;;;;9.53;6.70;;;;;;;22.94;47.08;99775.19;5071897;28;20653;-57
2022/05/13 07:37:17;;;;;;;7.70;6.90;;;;;;;23.01;46.87;99781.94;5071803;28;20259;-57
2022/05/13 07:42:28;;;;;;;9.53;8.03;;;;;;;23.13;46.86;99771.09;5071599;28;20214;-57
2022/05/13 07:44:56;;;;;;;12.67;9.00;;;;;;;23.24;46.82;99776.88;5071294;28;21048;-57
2022/05/13 07:47:23;;;;;;;12.50;7.40;;;;;;;23.38;45.57;99764.22;5071952;28;20194;-57
2022/05/13 07:49:50;;;;;;;8.57;6.10;;;;;;;23.47;44.10;99766.56;5072061;28;20213;-57
2022/05/13 07:52:17;;;;;;;9.03;6.50;;;;;;;23.57;43.79;99773.22;5071829;28;20195;-57
2022/05/13 07:54:43;;;;;;;7.80;6.70;;;;;;;23.62;44.04;99765.22;5071649;28;20206;-57
2022/05/13 07:57:10;;;;;;;7.97;6.67;;;;;;;23.64;44.12;99759.00;5071389;28;20199;-57
2022/05/13 08:00:24;;;;;;;9.60;7.07;;;;;;;23.72;43.94;99764.84;5072058;28;20200;-57
2022/05/13 08:02:34;;;;;;;7.73;6.23;;;;;;;23.82;42.32;99765.41;5071060;28;20276;-57
2022/05/13 08:05:00;;;;;;;8.80;7.03;;;;;;;23.85;42.34;99758.28;5071477;28;20192;-57
2022/05/13 08:07:27;;;;;;;8.60;6.90;;;;;;;23.88;42.29;99763.44;5071366;28;20230;-56
2022/05/13 08:09:54;;;;;;;8.10;6.37;;;;;;;23.93;43.29;99751.00;5070695;28;20211;-57
2022/05/13 08:12:21;;;;;;;8.80;7.23;;;;;;;24.04;42.98;99759.38;5069449;28;20192;-57
2022/05/13 08:14:47;;;;;;;8.33;7.20;;;;;;;24.03;42.78;99759.44;5068009;28;20196;-57
2022/05/13 08:17:14;;;;;;;10.37;6.90;;;;;;;23.91;42.63;99752.84;5067674;28;20199;-57
2022/05/13 08:19:42;;;;;;;8.03;6.80;;;;;;;23.96;43.20;99750.91;5068964;28;20282;-57
2022/05/13 08:22:09;;;;;;;7.90;7.07;;;;;;;24.07;42.97;99745.28;5069306;28;20187;-57
2022/05/13 08:24:36;;;;;;;8.40;7.50;;;;;;;24.17;43.11;99744.13;5070008;28;20604;-57
2022/05/13 08:27:03;;;;;;;13.60;6.83;;;;;;;24.18;43.06;99744.94;5069294;28;20310;-57
2022/05/13 08:29:30;;;;;;;10.63;7.20;;;;;;;24.16;43.04;99733.66;5070947;28;20191;-63
2022/05/13 08:31:56;;;;;;;7.87;6.50;;;;;;;24.27;41.82;99742.00;5070418;28;20196;-63
2022/05/13 08:34:23;;;;;;;9.33;6.90;;;;;;;24.41;42.58;99745.88;5070584;28;20195;-63
2022/05/13 08:36:51;;;;;;;28.37;8.40;;;;;;;24.54;41.32;99746.25;5070555;28;20192;-63
2022/05/13 08:39:18;;;;;;;8.63;7.17;;;;;;;24.61;41.28;99742.50;5070310;28;20231;-63
2022/05/13 08:41:59;;;;;;;10.83;7.17;;;;;;;24.69;41.45;99731.72;5070926;28;20180;-63
2022/05/13 08:44:27;;;;;;;10.87;7.03;;;;;;;24.82;41.25;99744.38;5070995;28;20247;-62
2022/05/13 08:46:58;;;;;;;9.30;7.73;;;;;;;24.79;41.39;99733.97;5070465;28;20219;-63
2022/05/13 08:49:34;;;;;;;10.50;7.33;;;;;;;24.83;41.47;99732.09;5070525;28;20202;-63
2022/05/13 08:55:20;;;;;;;12.07;8.37;;;;;;;24.59;41.10;99715.41;5034384;28;20191;-62
2022/05/13 08:57:49;;;;;;;9.93;7.97;;;;;;;24.64;41.97;99719.59;5070158;28;20191;-62
2022/05/13 09:00:24;;;;;;;9.90;7.73;;;;;;;24.77;41.12;99721.75;5069991;28;20265;-62
2022/05/13 09:02:56;;;;;;;15.80;7.67;;;;;;;24.80;41.48;99712.03;5069916;28;20191;-62
2022/05/13 09:05:27;;;;;;;12.47;7.70;;;;;;;24.69;42.17;99703.66;5069983;28;20684;-62
2022/05/13 09:07:56;;;;;;;9.25;7.75;;;;;;;24.98;41.81;99707.81;5068547;28;20425;-63
2022/05/13 09:10:23;;;;;;;8.60;7.80;;;;;;;24.91;40.80;99707.22;5069261;28;20218;-62
2022/05/13 09:12:58;;;;;;;9.73;7.23;;;;;;;25.05;41.51;99709.31;5069556;28;20578;-63
2022/05/13 09:15:35;;;;;;;10.05;7.57;;;;;;;25.16;40.55;99702.69;5069944;28;20195;-63
2022/05/13 09:18:06;;;;;;;8.23;7.40;;;;;;;25.19;40.51;99691.19;5070126;28;20199;-64
2022/05/13 09:20:42;;;;;;;12.03;8.60;;;;;;;25.32;40.44;99683.69;5069869;28;20188;-62
2022/05/13 09:23:13;;;;;;;12.07;8.07;;;;;;;25.48;40.60;99682.16;5069810;28;20187;-63
2022/05/13 09:26:01;;;;;;;9.77;7.93;;;;;;;25.72;40.75;99682.00;5069386;28;20222;-62
2022/05/13 09:28:29;;;;;;;9.40;8.13;;;;;;;25.63;41.60;99682.38;5069711;28;20278;-63
2022/05/13 09:31:05;;;;;;;10.35;7.85;;;;;;;25.49;41.09;99676.00;5069026;28;20843;-63
2022/05/13 09:33:36;;;;;;;14.10;6.80;;;;;;;25.70;41.28;99678.56;5069739;28;20191;-63
2022/05/13 09:36:06;;;;;;;9.25;7.40;;;;;;;25.95;41.55;99674.88;5069355;28;20191;-63
2022/05/13 09:38:42;;;;;;;8.18;7.38;;;;;;;25.70;41.03;99670.69;5069680;28;20666;-63
2022/05/13 09:41:11;;;;;;;9.65;7.43;;;;;;;25.75;40.99;99659.94;5069543;28;20187;-63
2022/05/13 09:43:41;;;;;;;7.68;6.97;;;;;;;25.64;40.77;99656.91;5068729;28;20652;-62
2022/05/13 09:46:10;;;;;;;9.07;7.25;;;;;;;25.57;40.61;99653.66;5069395;28;20291;-63
2022/05/13 09:48:40;;;;;;;10.82;6.50;;;;;;;25.63;40.32;99656.03;5069265;28;20196;-63
2022/05/13 09:51:26;;;;;;;8.13;7.43;;;;;;;25.61;39.61;99646.50;5069323;28;20206;-64
2022/05/13 09:54:15;;;;;;;7.47;6.77;;;;;;;25.65;39.89;99648.09;5068357;28;20187;-63
2022/05/13 09:56:44;;;;;;;8.60;6.77;;;;;;;25.68;39.29;99647.97;5068865;28;20195;-63
2022/05/13 09:59:19;;;;;;;7.40;6.73;;;;;;;25.76;38.73;99640.59;5068965;28;20196;-64
2022/05/13 10:01:46;;;;;;;11.00;6.55;;;;;;;25.96;39.32;99637.09;5069008;28;20573;-62
2022/05/13 10:04:20;;;;;;;9.05;6.93;;;;;;;25.96;39.32;99616.03;5068828;28;20214;-63
2022/05/13 10:06:47;;;;;;;7.40;6.77;;;;;;;25.94;40.30;99629.25;5068451;28;20287;-63
2022/05/13 10:15:10;;;;;;;6.90;6.30;;;;;;;26.44;39.20;99607.69;5065103;28;20268;-63
2022/05/13 10:17:47;;;;;;;8.07;7.28;;;;;;;26.64;38.81;99611.13;5065374;28;20283;-63
2022/05/13 10:20:25;;;;;;;7.57;6.75;;;;;;;26.73;37.16;99597.50;5070338;28;20573;-63
2022/05/13 10:22:57;;;;;;;8.05;6.70;;;;;;;26.98;37.60;99593.69;5068101;28;20221;-62
2022/05/13 10:25:30;;;;;;;7.80;7.10;;;;;;;27.14;36.69;99592.03;5072701;28;20531;-62
2022/05/13 10:28:02;;;;;;;7.00;6.30;;;;;;;26.92;36.20;99584.28;5072892;28;20452;-62
2022/05/13 10:30:36;;;;;;;6.38;5.82;;;;;;;26.79;35.57;99588.47;5072384;28;20440;-57
2022/05/13 10:33:06;;;;;;;7.47;6.10;;;;;;;26.91;36.47;99582.59;5073239;28;20192;-57
2022/05/13 10:35:39;;;;;;;7.55;6.25;;;;;;;26.94;35.45;99577.19;5073057;28;20195;-57
2022/05/13 10:38:13;;;;;;;7.88;6.75;;;;;;;27.04;36.52;99572.28;5073116;28;20697;-57
2022/05/13 10:40:44;;;;;;;6.72;6.13;;;;;;;27.27;36.06;99569.38;5071273;28;20188;-60
2022/05/13 10:43:16;;;;;;;6.78;5.95;;;;;;;27.31;35.75;99568.28;5067760;28;20191;-58
2022/05/13 10:45:44;;;;;;;5.97;5.25;;;;;;;27.19;32.86;99567.13;5070667;28;20555;-58
2022/05/13 10:48:22;;;;;;;6.00;5.05;;;;;;;27.11;31.70;99553.47;5072778;28;20620;-57
2022/05/13 10:50:59;;;;;;;6.13;5.53;;;;;;;27.37;32.64;99563.53;5072522;28;20187;-57
2022/05/13 10:53:36;;;;;;;10.70;5.53;;;;;;;27.28;33.57;99503.31;5073032;28;20290;-57
2022/05/13 10:56:14;;;;;;;8.85;5.68;;;;;;;27.69;33.77;99548.69;5072663;28;20231;-57
2022/05/13 10:58:51;;;;;;;6.27;5.67;;;;;;;27.68;34.25;99547.00;5071630;28;20493;-62
2022/05/13 11:01:40;;;;;;;7.55;5.63;;;;;;;27.71;33.65;99546.00;5070202;28;20213;-63
2022/05/13 11:04:17;;;;;;;5.15;4.75;;;;;;;27.69;32.64;99532.03;5069751;28;20183;-63
2022/05/13 11:06:57;;;;;;;5.22;4.82;;;;;;;27.56;32.77;99533.56;5071713;28;20225;-57
2022/05/13 11:09:35;;;;;;;5.82;5.10;;;;;;;27.45;32.97;99523.59;5067167;28;20187;-62
2022/05/13 11:12:12;;;;;;;6.30;5.63;;;;;;;27.44;33.67;99525.38;5072205;28;20186;-58
2022/05/13 11:14:50;;;;;;;6.82;5.55;;;;;;;27.53;33.36;99513.47;5071763;28;20302;-57
2022/05/13 11:17:28;;;;;;;6.30;5.70;;;;;;;27.66;33.21;99530.38;5068833;28;20290;-57
2022/05/13 11:20:07;;;;;;;5.60;5.10;;;;;;;27.64;33.33;99515.53;5070472;28;20191;-57
2022/05/13 11:22:38;;;;;;;6.93;5.00;;;;;;;27.56;31.66;99512.47;5070666;28;20191;-57
2022/05/13 11:28:37;;;;;;;6.45;5.85;;;;;;;27.59;33.83;99507.03;5053606;28;20669;-57
2022/05/13 11:31:18;;;;;;;5.65;5.10;;;;;;;27.81;33.01;99510.22;5042177;28;20272;-57
2022/05/13 11:33:49;;;;;;;7.57;5.53;;;;;;;28.09;32.73;99499.91;5051405;28;20199;-57
2022/05/13 11:36:28;;;;;;;6.65;5.60;;;;;;;28.29;32.94;99502.31;5051904;28;20656;-57
2022/05/13 11:39:13;;;;;;;6.30;5.63;;;;;;;28.38;32.34;99496.47;5051321;28;20228;-58
2022/05/13 11:41:51;;;;;;;5.82;5.13;;;;;;;28.37;31.74;99475.44;5050392;28;20188;-57
2022/05/13 11:44:28;;;;;;;8.27;5.80;;;;;;;28.51;32.18;99473.69;5051774;28;20203;-57
2022/05/13 11:47:01;;;;;;;8.48;5.53;;;;;;;28.61;32.57;99482.81;5049868;28;20227;-57
2022/05/13 11:49:30;;;;;;;7.20;5.47;;;;;;;28.74;32.19;99480.34;5049732;28;20195;-57
2022/05/13 11:52:04;;;;;;;10.80;5.03;;;;;;;28.73;30.14;99477.78;5050205;28;20443;-57
2022/05/13 11:54:31;;;;;;;6.65;6.05;;;;;;;28.73;30.42;99468.06;5050590;28;20192;-57
2022/05/13 11:57:24;;;;;;;8.15;5.55;;;;;;;28.89;30.14;99471.53;5051207;28;20188;-57
2022/05/13 11:59:54;;;;;;;5.85;5.35;;;;;;;28.91;31.93;99461.69;5050910;28;20185;-57
2022/05/13 12:02:34;;;;;;;10.23;6.50;;;;;;;29.04;30.91;99452.06;5051411;28;20201;-57
2022/05/13 12:05:11;;;;;;;7.47;5.47;;;;;;;29.23;29.38;99449.19;5051480;28;20257;-57
2022/05/13 12:07:50;;;;;;;6.70;5.50;;;;;;;29.27;30.37;99452.50;5051148;28;20622;-57
2022/05/13 12:10:18;;;;;;;7.00;5.15;;;;;;;29.32;30.13;99442.50;5051202;28;20669;-57
2022/05/13 12:13:03;;;;;;;6.13;5.53;;;;;;;29.30;30.06;99437.31;5051089;28;20208;-58
2022/05/13 12:15:47;;;;;;;6.55;5.95;;;;;;;29.48;30.47;99428.22;5051045;28;20544;-58